sensor_id;sensor_type;location;lat;lon;timestamp;pressure;altitude;pressure_sealevel;temperature;humidity
62152;BME280;48139;47.474;19.034;2023-04-21T03:46:37;100366.25;;;11.58;69.51
62152;BME280;48139;47.474;19.034;2023-04-21T03:49:41;100366.25;;;11.58;69.51
62152;BME280;48139;47.474;19.034;2023-04-21T03:52:43;100374.31;;;11.19;70.72
62152;BME280;48139;47.474;19.034;2023-04-21T03:55:49;100375.72;;;11.26;69.22
62152;BME280;48139;47.474;19.034;2023-04-21T03:58:51;100381.44;;;11.34;68.57
62152;BME280;48139;47.474;19.034;2023-04-21T04:01:54;100384.31;;;11.47;67.98
62152;BME280;48139;47.474;19.034;2023-04-21T04:04:57;100385.28;;;11.44;68.47
62152;BME280;48139;47.474;19.034;2023-04-21T04:08:00;100392.00;;;11.50;67.50
62152;BME280;48139;47.474;19.034;2023-04-21T04:11:03;100390.94;;;11.54;67.64
62152;BME280;48139;47.474;19.034;2023-04-21T04:14:05;100394.97;;;11.61;66.30
62152;BME280;48139;47.474;19.034;2023-04-21T04:17:08;100392.56;;;11.56;66.86
62152;BME280;48139;47.474;19.034;2023-04-21T04:20:10;100398.22;;;11.49;68.08
62152;BME280;48139;47.474;19.034;2023-04-21T04:23:14;100404.44;;;11.46;68.79
62152;BME280;48139;47.474;19.034;2023-04-21T04:26:17;100412.06;;;11.51;68.54
62152;BME280;48139;47.474;19.034;2023-04-21T04:29:20;100408.53;;;11.52;69.83
62152;BME280;48139;47.474;19.034;2023-04-21T04:32:23;100403.53;;;11.47;70.07
62152;BME280;48139;47.474;19.034;2023-04-21T04:35:29;100410.59;;;11.45;70.62
62152;BME280;48139;47.474;19.034;2023-04-21T04:38:32;100405.91;;;11.52;70.47
62152;BME280;48139;47.474;19.034;2023-04-21T04:41:37;100409.00;;;11.60;72.11
62152;BME280;48139;47.474;19.034;2023-04-21T04:44:39;100414.78;;;11.66;70.39
62152;BME280;48139;47.474;19.034;2023-04-21T04:47:42;100419.72;;;11.72;71.09
62152;BME280;48139;47.474;19.034;2023-04-21T04:50:47;100419.13;;;11.85;71.10
62152;BME280;48139;47.474;19.034;2023-04-21T04:53:49;100413.87;;;11.85;70.85
62152;BME280;48139;47.474;19.034;2023-04-21T04:56:52;100422.75;;;11.82;70.62
62152;BME280;48139;47.474;19.034;2023-04-21T04:59:57;100412.72;;;11.90;70.28
62152;BME280;48139;47.474;19.034;2023-04-21T05:03:00;100417.72;;;11.95;69.57
62152;BME280;48139;47.474;19.034;2023-04-21T05:06:03;100422.22;;;11.93;69.07
62152;BME280;48139;47.474;19.034;2023-04-21T05:09:05;100418.47;;;12.14;68.46
62152;BME280;48139;47.474;19.034;2023-04-21T05:12:08;100418.41;;;12.16;66.82
62152;BME280;48139;47.474;19.034;2023-04-21T05:15:11;100419.78;;;12.38;66.20
62152;BME280;48139;47.474;19.034;2023-04-21T05:18:13;100421.88;;;12.49;66.60
62152;BME280;48139;47.474;19.034;2023-04-21T05:21:22;100416.34;;;12.69;64.26
62152;BME280;48139;47.474;19.034;2023-04-21T05:24:25;100413.37;;;12.75;63.42
62152;BME280;48139;47.474;19.034;2023-04-21T05:27:28;100423.03;;;12.75;62.14
62152;BME280;48139;47.474;19.034;2023-04-21T05:30:31;100426.81;;;12.86;62.18
62152;BME280;48139;47.474;19.034;2023-04-21T05:33:33;100424.91;;;12.88;61.31
62152;BME280;48139;47.474;19.034;2023-04-21T05:36:36;100428.31;;;12.90;61.45
62152;BME280;48139;47.474;19.034;2023-04-21T05:39:38;100430.63;;;12.97;62.06
62152;BME280;48139;47.474;19.034;2023-04-21T05:42:41;100433.31;;;13.42;59.71
62152;BME280;48139;47.474;19.034;2023-04-21T05:45:43;100427.66;;;14.50;55.10
62152;BME280;48139;47.474;19.034;2023-04-21T05:48:46;100435.09;;;14.58;54.86
62152;BME280;48139;47.474;19.034;2023-04-21T05:51:48;100429.25;;;14.67;54.42
62152;BME280;48139;47.474;19.034;2023-04-21T05:54:51;100433.41;;;14.57;54.16
62152;BME280;48139;47.474;19.034;2023-04-21T05:57:54;100433.09;;;14.62;53.72
62152;BME280;48139;47.474;19.034;2023-04-21T06:01:04;100436.25;;;14.54;53.45
62152;BME280;48139;47.474;19.034;2023-04-21T06:04:40;100431.06;;;14.52;52.87
62152;BME280;48139;47.474;19.034;2023-04-21T06:08:16;100434.72;;;14.50;52.20
62152;BME280;48139;47.474;19.034;2023-04-21T06:11:57;100434.72;;;14.50;51.66
62152;BME280;48139;47.474;19.034;2023-04-21T06:15:33;100434.25;;;14.43;52.21
62152;BME280;48139;47.474;19.034;2023-04-21T06:19:09;100435.41;;;14.53;52.19
62152;BME280;48139;47.474;19.034;2023-04-21T06:22:45;100428.34;;;14.54;50.76
62152;BME280;48139;47.474;19.034;2023-04-21T06:26:21;100435.19;;;14.71;51.08
62152;BME280;48139;47.474;19.034;2023-04-21T06:29:57;100429.03;;;14.84;49.62
62152;BME280;48139;47.474;19.034;2023-04-21T06:33:34;100426.87;;;14.91;48.96
62152;BME280;48139;47.474;19.034;2023-04-21T06:37:03;100425.53;;;14.98;48.56
62152;BME280;48139;47.474;19.034;2023-04-21T06:40:07;100433.22;;;15.01;47.54
62152;BME280;48139;47.474;19.034;2023-04-21T06:43:10;100432.94;;;15.06;47.83
62152;BME280;48139;47.474;19.034;2023-04-21T06:46:12;100418.81;;;15.33;47.04
62152;BME280;48139;47.474;19.034;2023-04-21T06:49:15;100438.16;;;15.47;47.21
62152;BME280;48139;47.474;19.034;2023-04-21T06:52:18;100420.28;;;15.38;46.05
62152;BME280;48139;47.474;19.034;2023-04-21T06:55:21;100422.81;;;15.53;45.30
62152;BME280;48139;47.474;19.034;2023-04-21T06:58:24;100428.75;;;15.69;45.67
62152;BME280;48139;47.474;19.034;2023-04-21T07:01:26;100416.94;;;15.88;44.88
62152;BME280;48139;47.474;19.034;2023-04-21T07:04:29;100418.59;;;15.76;44.22
62152;BME280;48139;47.474;19.034;2023-04-21T07:07:33;100417.25;;;15.96;44.45
62152;BME280;48139;47.474;19.034;2023-04-21T07:10:36;100413.16;;;15.92;44.48
62152;BME280;48139;47.474;19.034;2023-04-21T07:13:38;100426.03;;;15.96;44.39
62152;BME280;48139;47.474;19.034;2023-04-21T07:16:41;100428.34;;;16.01;45.11
62152;BME280;48139;47.474;19.034;2023-04-21T07:19:43;100420.09;;;16.18;44.69
62152;BME280;48139;47.474;19.034;2023-04-21T07:22:46;100419.56;;;16.00;44.26
62152;BME280;48139;47.474;19.034;2023-04-21T07:25:49;100417.16;;;16.10;44.47
62152;BME280;48139;47.474;19.034;2023-04-21T07:28:53;100420.84;;;16.07;44.58
62152;BME280;48139;47.474;19.034;2023-04-21T07:31:57;100412.41;;;16.15;44.76
62152;BME280;48139;47.474;19.034;2023-04-21T07:35:00;100406.06;;;16.05;44.57
62152;BME280;48139;47.474;19.034;2023-04-21T07:38:03;100405.09;;;16.19;43.64
62152;BME280;48139;47.474;19.034;2023-04-21T07:41:06;100414.94;;;16.42;43.71
62152;BME280;48139;47.474;19.034;2023-04-21T07:44:08;100413.94;;;16.43;42.35
62152;BME280;48139;47.474;19.034;2023-04-21T07:47:11;100412.47;;;16.64;44.37
62152;BME280;48139;47.474;19.034;2023-04-21T07:50:13;100406.97;;;16.67;43.88
62152;BME280;48139;47.474;19.034;2023-04-21T07:53:16;100408.44;;;16.71;42.99
62152;BME280;48139;47.474;19.034;2023-04-21T07:56:19;100408.62;;;16.81;43.66
62152;BME280;48139;47.474;19.034;2023-04-21T07:59:22;100417.75;;;17.01;43.47
62152;BME280;48139;47.474;19.034;2023-04-21T08:02:25;100413.91;;;17.17;43.13
62152;BME280;48139;47.474;19.034;2023-04-21T08:05:27;100405.47;;;17.47;41.39
62152;BME280;48139;47.474;19.034;2023-04-21T08:08:35;100409.81;;;17.48;41.59
62152;BME280;48139;47.474;19.034;2023-04-21T08:11:38;100401.06;;;17.59;41.11
62152;BME280;48139;47.474;19.034;2023-04-21T08:14:40;100402.34;;;17.77;40.22
62152;BME280;48139;47.474;19.034;2023-04-21T08:17:43;100412.50;;;17.94;40.14
62152;BME280;48139;47.474;19.034;2023-04-21T08:20:46;100404.53;;;17.83;39.91
62152;BME280;48139;47.474;19.034;2023-04-21T08:23:52;100411.03;;;17.79;39.07
62152;BME280;48139;47.474;19.034;2023-04-21T08:26:56;100413.53;;;17.69;40.24
62152;BME280;48139;47.474;19.034;2023-04-21T08:29:59;100407.88;;;17.74;39.05
62152;BME280;48139;47.474;19.034;2023-04-21T08:33:02;100402.00;;;17.82;38.04
62152;BME280;48139;47.474;19.034;2023-04-21T08:36:05;100404.22;;;17.99;38.14
62152;BME280;48139;47.474;19.034;2023-04-21T08:39:20;100394.19;;;17.80;37.77
62152;BME280;48139;47.474;19.034;2023-04-21T08:42:23;100393.47;;;17.89;39.69
62152;BME280;48139;47.474;19.034;2023-04-21T08:45:26;100393.63;;;18.10;38.93
62152;BME280;48139;47.474;19.034;2023-04-21T08:48:30;100395.66;;;18.06;37.85
62152;BME280;48139;47.474;19.034;2023-04-21T08:51:34;100396.87;;;18.25;37.50
62152;BME280;48139;47.474;19.034;2023-04-21T08:54:37;100396.53;;;18.40;37.00
62152;BME280;48139;47.474;19.034;2023-04-21T08:57:40;100392.19;;;18.39;36.76
62152;BME280;48139;47.474;19.034;2023-04-21T09:00:43;100394.59;;;18.42;37.21
62152;BME280;48139;47.474;19.034;2023-04-21T09:03:45;100389.78;;;18.36;36.91
62152;BME280;48139;47.474;19.034;2023-04-21T09:06:48;100390.50;;;18.72;37.50
62152;BME280;48139;47.474;19.034;2023-04-21T09:09:52;100397.34;;;18.85;35.59
62152;BME280;48139;47.474;19.034;2023-04-21T09:12:55;100387.84;;;18.72;35.20
62152;BME280;48139;47.474;19.034;2023-04-21T09:15:58;100389.97;;;18.89;35.79
62152;BME280;48139;47.474;19.034;2023-04-21T09:19:01;100379.53;;;19.08;34.50
62152;BME280;48139;47.474;19.034;2023-04-21T09:22:04;100379.41;;;19.42;33.83
62152;BME280;48139;47.474;19.034;2023-04-21T09:25:07;100377.19;;;19.58;34.58
62152;BME280;48139;47.474;19.034;2023-04-21T09:28:13;100379.09;;;19.35;34.70
62152;BME280;48139;47.474;19.034;2023-04-21T09:31:18;100373.50;;;19.38;35.35
62152;BME280;48139;47.474;19.034;2023-04-21T09:34:23;100367.72;;;19.65;34.06
62152;BME280;48139;47.474;19.034;2023-04-21T09:37:32;100366.47;;;19.69;33.61
62152;BME280;48139;47.474;19.034;2023-04-21T09:40:36;100360.09;;;20.02;34.24
62152;BME280;48139;47.474;19.034;2023-04-21T09:43:38;100360.72;;;20.15;34.04
62152;BME280;48139;47.474;19.034;2023-04-21T09:46:42;100354.28;;;19.87;33.19
62152;BME280;48139;47.474;19.034;2023-04-21T09:49:51;100353.72;;;19.63;34.34
62152;BME280;48139;47.474;19.034;2023-04-21T09:52:55;100348.13;;;18.92;35.24
62152;BME280;48139;47.474;19.034;2023-04-21T09:55:58;100356.00;;;18.72;36.26
62152;BME280;48139;47.474;19.034;2023-04-21T09:59:06;100349.16;;;19.01;35.28
62152;BME280;48139;47.474;19.034;2023-04-21T10:02:11;100349.50;;;19.08;35.34
62152;BME280;48139;47.474;19.034;2023-04-21T10:05:15;100345.47;;;18.92;35.60
62152;BME280;48139;47.474;19.034;2023-04-21T10:08:18;100347.41;;;18.68;36.91
62152;BME280;48139;47.474;19.034;2023-04-21T10:11:21;100350.72;;;18.61;36.23
62152;BME280;48139;47.474;19.034;2023-04-21T10:14:24;100342.28;;;18.33;36.17
62152;BME280;48139;47.474;19.034;2023-04-21T10:17:27;100339.84;;;18.19;36.59
62152;BME280;48139;47.474;19.034;2023-04-21T10:20:29;100338.78;;;18.55;36.41
62152;BME280;48139;47.474;19.034;2023-04-21T10:23:44;100341.56;;;18.97;36.17
62152;BME280;48139;47.474;19.034;2023-04-21T10:26:49;100331.56;;;18.89;34.94
62152;BME280;48139;47.474;19.034;2023-04-21T10:29:57;100330.72;;;19.20;34.91
62152;BME280;48139;47.474;19.034;2023-04-21T10:33:04;100319.31;;;19.09;35.47
62152;BME280;48139;47.474;19.034;2023-04-21T10:36:10;100318.94;;;19.13;35.80
62152;BME280;48139;47.474;19.034;2023-04-21T10:39:44;100324.03;;;19.05;35.37
62152;BME280;48139;47.474;19.034;2023-04-21T10:42:48;100323.22;;;19.05;36.32
62152;BME280;48139;47.474;19.034;2023-04-21T10:45:51;100312.31;;;19.08;35.73
62152;BME280;48139;47.474;19.034;2023-04-21T10:48:54;100313.78;;;19.74;35.09
62152;BME280;48139;47.474;19.034;2023-04-21T10:58:04;100294.87;;;19.67;35.26
62152;BME280;48139;47.474;19.034;2023-04-21T11:01:07;100294.19;;;19.75;34.55
62152;BME280;48139;47.474;19.034;2023-04-21T11:04:14;100303.12;;;19.32;34.03
62152;BME280;48139;47.474;19.034;2023-04-21T11:07:19;100295.22;;;19.53;34.63
62152;BME280;48139;47.474;19.034;2023-04-21T11:10:22;100299.59;;;19.64;34.94
62152;BME280;48139;47.474;19.034;2023-04-21T11:13:26;100293.97;;;19.57;34.71
62152;BME280;48139;47.474;19.034;2023-04-21T11:16:34;100294.59;;;19.29;35.16
62152;BME280;48139;47.474;19.034;2023-04-21T11:19:40;100290.81;;;19.31;34.89
62152;BME280;48139;47.474;19.034;2023-04-21T11:22:43;100284.34;;;19.45;36.35
62152;BME280;48139;47.474;19.034;2023-04-21T11:25:45;100291.94;;;19.50;35.36
62152;BME280;48139;47.474;19.034;2023-04-21T11:28:51;100286.88;;;19.26;35.84
62152;BME280;48139;47.474;19.034;2023-04-21T11:32:00;100294.97;;;19.04;36.31
62152;BME280;48139;47.474;19.034;2023-04-21T11:35:07;100282.88;;;18.79;37.02
62152;BME280;48139;47.474;19.034;2023-04-21T11:38:10;100291.34;;;18.62;37.09
62152;BME280;48139;47.474;19.034;2023-04-21T11:41:22;100279.28;;;18.69;36.66
62152;BME280;48139;47.474;19.034;2023-04-21T11:44:44;100284.34;;;18.72;36.32
62152;BME280;48139;47.474;19.034;2023-04-21T11:47:47;100278.66;;;18.76;35.96
62152;BME280;48139;47.474;19.034;2023-04-21T11:50:50;100275.75;;;18.79;36.16
62152;BME280;48139;47.474;19.034;2023-04-21T11:53:52;100275.50;;;18.82;36.75
62152;BME280;48139;47.474;19.034;2023-04-21T11:56:55;100275.66;;;18.70;36.13
62152;BME280;48139;47.474;19.034;2023-04-21T12:00:02;100273.34;;;18.76;36.33
62152;BME280;48139;47.474;19.034;2023-04-21T12:03:07;100273.44;;;18.86;36.66
62152;BME280;48139;47.474;19.034;2023-04-21T12:06:19;100267.41;;;18.84;36.30
62152;BME280;48139;47.474;19.034;2023-04-21T12:09:35;100267.97;;;18.99;36.47
62152;BME280;48139;47.474;19.034;2023-04-21T12:12:49;100264.25;;;19.31;36.44
62152;BME280;48139;47.474;19.034;2023-04-21T12:15:52;100261.53;;;19.63;34.85
62152;BME280;48139;47.474;19.034;2023-04-21T12:18:55;100262.16;;;19.77;35.22
62152;BME280;48139;47.474;19.034;2023-04-21T12:21:59;100256.84;;;19.77;34.62
62152;BME280;48139;47.474;19.034;2023-04-21T12:25:02;100248.69;;;19.68;35.39
62152;BME280;48139;47.474;19.034;2023-04-21T12:28:07;100254.06;;;19.48;35.09
62152;BME280;48139;47.474;19.034;2023-04-21T12:31:10;100255.75;;;19.49;35.76
62152;BME280;48139;47.474;19.034;2023-04-21T12:34:12;100250.56;;;19.47;35.60
62152;BME280;48139;47.474;19.034;2023-04-21T12:37:15;100245.38;;;19.46;36.20
62152;BME280;48139;47.474;19.034;2023-04-21T12:40:18;100244.78;;;19.42;36.03
62152;BME280;48139;47.474;19.034;2023-04-21T12:43:21;100240.16;;;19.44;36.90
62152;BME280;48139;47.474;19.034;2023-04-21T12:46:23;100247.34;;;19.32;35.56
62152;BME280;48139;47.474;19.034;2023-04-21T12:49:26;100244.19;;;19.39;36.79
62152;BME280;48139;47.474;19.034;2023-04-21T12:52:30;100235.97;;;19.42;36.99
62152;BME280;48139;47.474;19.034;2023-04-21T12:55:34;100240.97;;;19.35;36.84
62152;BME280;48139;47.474;19.034;2023-04-21T12:58:37;100235.88;;;19.32;36.75
62152;BME280;48139;47.474;19.034;2023-04-21T13:01:40;100238.81;;;19.08;36.77
62152;BME280;48139;47.474;19.034;2023-04-21T13:04:46;100236.91;;;18.99;37.35
62152;BME280;48139;47.474;19.034;2023-04-21T13:07:48;100238.75;;;18.99;38.27
62152;BME280;48139;47.474;19.034;2023-04-21T13:10:51;100230.66;;;18.79;36.41
62152;BME280;48139;47.474;19.034;2023-04-21T13:13:57;100235.28;;;18.87;37.32
62152;BME280;48139;47.474;19.034;2023-04-21T13:16:59;100236.47;;;18.73;36.57
62152;BME280;48139;47.474;19.034;2023-04-21T13:20:03;100227.81;;;18.60;36.57
62152;BME280;48139;47.474;19.034;2023-04-21T13:23:06;100226.13;;;18.59;37.89
62152;BME280;48139;47.474;19.034;2023-04-21T13:26:10;100229.03;;;18.56;38.30
62152;BME280;48139;47.474;19.034;2023-04-21T13:29:12;100229.97;;;18.66;37.36
62152;BME280;48139;47.474;19.034;2023-04-21T13:32:15;100227.31;;;18.66;36.41
62152;BME280;48139;47.474;19.034;2023-04-21T13:35:18;100223.19;;;18.73;36.40
62152;BME280;48139;47.474;19.034;2023-04-21T13:38:20;100228.62;;;18.72;36.48
62152;BME280;48139;47.474;19.034;2023-04-21T13:41:23;100226.31;;;18.78;35.23
62152;BME280;48139;47.474;19.034;2023-04-21T13:44:26;100224.94;;;18.84;35.31
62152;BME280;48139;47.474;19.034;2023-04-21T13:47:30;100223.78;;;18.77;35.78
62152;BME280;48139;47.474;19.034;2023-04-21T13:50:34;100223.84;;;18.86;35.36
62152;BME280;48139;47.474;19.034;2023-04-21T13:53:37;100216.34;;;18.91;35.58
62152;BME280;48139;47.474;19.034;2023-04-21T13:56:40;100205.22;;;18.98;35.99
62152;BME280;48139;47.474;19.034;2023-04-21T13:59:43;100209.84;;;19.26;35.29
62152;BME280;48139;47.474;19.034;2023-04-21T14:02:46;100205.28;;;19.38;35.44
62152;BME280;48139;47.474;19.034;2023-04-21T14:05:50;100201.47;;;19.30;35.62
62152;BME280;48139;47.474;19.034;2023-04-21T14:08:52;100201.00;;;19.16;36.29
62152;BME280;48139;47.474;19.034;2023-04-21T14:11:55;100190.19;;;19.08;37.49
62152;BME280;48139;47.474;19.034;2023-04-21T14:14:58;100194.72;;;19.17;36.02
62152;BME280;48139;47.474;19.034;2023-04-21T14:18:01;100191.66;;;19.21;36.62
62152;BME280;48139;47.474;19.034;2023-04-21T14:21:04;100190.28;;;19.27;36.55
62152;BME280;48139;47.474;19.034;2023-04-21T14:24:07;100184.97;;;19.27;36.74
62152;BME280;48139;47.474;19.034;2023-04-21T14:27:10;100180.94;;;19.32;35.92
62152;BME280;48139;47.474;19.034;2023-04-21T14:30:13;100183.91;;;19.09;36.29
62152;BME280;48139;47.474;19.034;2023-04-21T14:33:16;100174.00;;;19.11;36.70
62152;BME280;48139;47.474;19.034;2023-04-21T14:36:19;100178.09;;;19.24;36.67
62152;BME280;48139;47.474;19.034;2023-04-21T14:39:21;100170.97;;;19.25;36.59
62152;BME280;48139;47.474;19.034;2023-04-21T14:42:24;100166.63;;;19.24;35.98
62152;BME280;48139;47.474;19.034;2023-04-21T14:45:27;100167.34;;;19.26;36.19
62152;BME280;48139;47.474;19.034;2023-04-21T14:48:30;100167.69;;;19.12;35.49
62152;BME280;48139;47.474;19.034;2023-04-21T14:51:35;100158.13;;;19.00;36.97
62152;BME280;48139;47.474;19.034;2023-04-21T14:54:42;100165.63;;;18.94;37.58
62152;BME280;48139;47.474;19.034;2023-04-21T14:57:44;100162.75;;;18.98;35.94
62152;BME280;48139;47.474;19.034;2023-04-21T15:00:48;100163.63;;;18.87;36.93
62152;BME280;48139;47.474;19.034;2023-04-21T15:03:51;100166.47;;;18.74;38.29
62152;BME280;48139;47.474;19.034;2023-04-21T15:06:54;100156.25;;;18.70;36.93
62152;BME280;48139;47.474;19.034;2023-04-21T15:09:57;100163.19;;;18.61;38.36
62152;BME280;48139;47.474;19.034;2023-04-21T15:13:00;100158.97;;;18.59;38.80
62152;BME280;48139;47.474;19.034;2023-04-21T15:16:03;100152.44;;;18.63;38.38
62152;BME280;48139;47.474;19.034;2023-04-21T15:19:06;100150.16;;;18.58;37.84
62152;BME280;48139;47.474;19.034;2023-04-21T15:22:09;100153.53;;;18.49;38.60
62152;BME280;48139;47.474;19.034;2023-04-21T15:25:13;100145.00;;;18.45;36.86
62152;BME280;48139;47.474;19.034;2023-04-21T15:28:16;100145.28;;;18.42;37.14
62152;BME280;48139;47.474;19.034;2023-04-21T15:31:19;100149.31;;;18.26;38.29
62152;BME280;48139;47.474;19.034;2023-04-21T15:34:21;100145.37;;;18.09;39.66
62152;BME280;48139;47.474;19.034;2023-04-21T15:37:24;100149.28;;;17.94;38.46
62152;BME280;48139;47.474;19.034;2023-04-21T15:40:27;100147.03;;;17.78;38.36
62152;BME280;48139;47.474;19.034;2023-04-21T15:43:30;100150.53;;;17.79;38.56
62152;BME280;48139;47.474;19.034;2023-04-21T15:46:33;100144.12;;;17.70;39.33
